KLM702 SAEZ-EHAM
Flight info
| Callsign | KLM702 |
|---|---|
| Flight time | N/A |
| Altitude | 31000 |
| Route | DORVO1E DORVO UN857 OGRUN DCT NIGBI UZ121 PENSO UZ5 SEKPO DCT KADAG/N0500F330 UZ2 SLI DCT MAVKO DCT GOGSO DCT GARPO/M083F350 DCT TEGTO DCT SORAD DCT 35N022W 40N019W/M083F370 DCT GONAN DCT TAMEL DCT EVBAK DCT GAPLI/N0477F370 DCT GAJIT DCT ENHAQ DCT REDFA |
| Aircraft | B77W/H-SDE1E2E3FGHIJ2J3J4J5M1RWXY/LB1D1 |
Departure
| Time | 2026-04-29 03:20 |
|---|---|
| Airport | Ezeiza International Airport - Ministro Pistarini (SAEZ) |
Arrival
| Time | N/A |
|---|---|
| Airport | Amsterdam Airport Schiphol (EHAM) |
| Time | Latitude | Longitude | Altitude | Speed | Heading |
|---|---|---|---|---|---|
| 2026-04-29 03:20 | -34.92965 | -58.69398 | 6003 ft | 281 kts | 143° |
| 2026-04-29 03:20 | -34.94432 | -58.67801 | 5991 ft | 284 kts | 133° |
| 2026-04-29 03:20 | -34.95679 | -58.65943 | 6004 ft | 282 kts | 126° |
| 2026-04-29 03:20 | -34.96751 | -58.63936 | 6038 ft | 282 kts | 118° |
| 2026-04-29 03:21 | -34.97259 | -58.61699 | 6488 ft | 283 kts | 87° |
| 2026-04-29 03:21 | -34.96862 | -58.59345 | 6977 ft | 286 kts | 74° |
| 2026-04-29 03:21 | -34.96305 | -58.56987 | 7511 ft | 291 kts | 74° |
| 2026-04-29 03:21 | -34.95742 | -58.54608 | 8183 ft | 292 kts | 74° |
| 2026-04-29 03:22 | -34.95178 | -58.52222 | 8819 ft | 294 kts | 74° |
| 2026-04-29 03:22 | -34.94612 | -58.49816 | 9420 ft | 297 kts | 74° |
| 2026-04-29 03:22 | -34.94041 | -58.47381 | 10010 ft | 300 kts | 74° |
| 2026-04-29 03:22 | -34.93462 | -58.44901 | 10429 ft | 310 kts | 74° |
| 2026-04-29 03:23 | -34.92853 | -58.42279 | 10559 ft | 330 kts | 74° |
| 2026-04-29 03:23 | -34.92210 | -58.39505 | 10736 ft | 350 kts | 74° |
| 2026-04-29 03:23 | -34.91538 | -58.36604 | 10915 ft | 368 kts | 74° |
| 2026-04-29 03:23 | -34.90831 | -58.33548 | 11347 ft | 378 kts | 74° |
| 2026-04-29 03:24 | -34.90110 | -58.30436 | 11922 ft | 385 kts | 74° |
| 2026-04-29 03:24 | -34.89378 | -58.27274 | 12590 ft | 388 kts | 74° |
| 2026-04-29 03:24 | -34.88642 | -58.24101 | 13278 ft | 391 kts | 74° |
| 2026-04-29 03:24 | -34.87899 | -58.20903 | 13946 ft | 394 kts | 74° |
| 2026-04-29 03:25 | -34.87149 | -58.17674 | 14565 ft | 398 kts | 74° |
| 2026-04-29 03:25 | -34.86398 | -58.14451 | 15167 ft | 402 kts | 74° |
| 2026-04-29 03:25 | -34.85633 | -58.11167 | 15778 ft | 405 kts | 74° |
| 2026-04-29 03:25 | -34.84859 | -58.07849 | 16385 ft | 409 kts | 74° |
| 2026-04-29 03:26 | -34.84078 | -58.04507 | 16944 ft | 412 kts | 74° |
| 2026-04-29 03:26 | -34.83285 | -58.01120 | 17527 ft | 416 kts | 74° |
| 2026-04-29 03:26 | -34.82490 | -57.97724 | 18079 ft | 419 kts | 74° |
| 2026-04-29 03:26 | -34.81686 | -57.94297 | 18618 ft | 423 kts | 74° |
| 2026-04-29 03:27 | -34.80874 | -57.90843 | 19152 ft | 426 kts | 74° |
| 2026-04-29 03:27 | -34.80054 | -57.87355 | 19674 ft | 429 kts | 74° |
| 2026-04-29 03:27 | -34.79239 | -57.83900 | 20175 ft | 433 kts | 74° |
| 2026-04-29 03:27 | -34.78406 | -57.80368 | 20677 ft | 436 kts | 74° |
| 2026-04-29 03:28 | -34.77565 | -57.76810 | 21152 ft | 439 kts | 74° |
| 2026-04-29 03:28 | -34.76718 | -57.73228 | 21633 ft | 442 kts | 74° |
| 2026-04-29 03:28 | -34.75864 | -57.69621 | 22081 ft | 445 kts | 74° |
| 2026-04-29 03:28 | -34.75002 | -57.65988 | 22524 ft | 448 kts | 74° |
| 2026-04-29 03:29 | -34.74135 | -57.62337 | 22961 ft | 451 kts | 74° |
| 2026-04-29 03:29 | -34.73260 | -57.58660 | 23395 ft | 454 kts | 74° |
| 2026-04-29 03:29 | -34.72295 | -57.54994 | 23786 ft | 457 kts | 68° |
| 2026-04-29 03:29 | -34.70935 | -57.51491 | 24187 ft | 460 kts | 60° |
| 2026-04-29 03:30 | -34.69238 | -57.48187 | 24577 ft | 462 kts | 54° |
| 2026-04-29 03:30 | -34.67225 | -57.45127 | 24967 ft | 465 kts | 50° |
| 2026-04-29 03:30 | -34.65125 | -57.42125 | 25327 ft | 468 kts | 49° |
| 2026-04-29 03:30 | -34.63004 | -57.39112 | 25681 ft | 470 kts | 49° |
| 2026-04-29 03:31 | -34.58765 | -57.33059 | 26382 ft | 475 kts | 50° |
| 2026-04-29 03:31 | -34.56626 | -57.29978 | 26718 ft | 478 kts | 50° |
| 2026-04-29 03:31 | -34.54484 | -57.26884 | 27045 ft | 480 kts | 50° |
| 2026-04-29 03:32 | -34.52328 | -57.23765 | 27354 ft | 482 kts | 50° |
| 2026-04-29 03:32 | -34.50167 | -57.20641 | 27668 ft | 485 kts | 50° |
| 2026-04-29 03:32 | -34.47991 | -57.17498 | 27965 ft | 487 kts | 50° |
| 2026-04-29 03:32 | -34.45802 | -57.14338 | 28249 ft | 489 kts | 50° |
| 2026-04-29 03:33 | -34.43636 | -57.11217 | 28512 ft | 491 kts | 50° |
| 2026-04-29 03:33 | -34.41433 | -57.08044 | 28775 ft | 493 kts | 50° |
| 2026-04-29 03:33 | -34.39220 | -57.04862 | 29031 ft | 495 kts | 50° |
| 2026-04-29 03:33 | -34.37001 | -57.01672 | 29353 ft | 495 kts | 50° |
| 2026-04-29 03:34 | -34.34782 | -56.98486 | 29713 ft | 493 kts | 50° |
| 2026-04-29 03:34 | -34.32571 | -56.95314 | 30075 ft | 492 kts | 50° |
| 2026-04-29 03:34 | -34.30362 | -56.92147 | 30408 ft | 491 kts | 50° |
| 2026-04-29 03:34 | -34.28155 | -56.88985 | 30705 ft | 491 kts | 50° |
| 2026-04-29 03:35 | -34.25947 | -56.85826 | 30924 ft | 492 kts | 50° |
| 2026-04-29 03:35 | -34.23726 | -56.82655 | 30958 ft | 495 kts | 50° |
| 2026-04-29 03:35 | -34.19298 | -56.76351 | 30987 ft | 491 kts | 50° |
| 2026-04-29 03:36 | -34.14891 | -56.70085 | 31001 ft | 489 kts | 50° |
| 2026-04-29 03:36 | -34.10481 | -56.63822 | 31002 ft | 488 kts | 50° |
| 2026-04-29 03:37 | -34.06102 | -56.57613 | 31004 ft | 489 kts | 50° |
| 2026-04-29 03:37 | -34.01680 | -56.51354 | 31000 ft | 489 kts | 50° |
| 2026-04-29 03:38 | -33.97250 | -56.45095 | 31004 ft | 490 kts | 50° |
| 2026-04-29 03:38 | -33.92843 | -56.38877 | 31003 ft | 491 kts | 49° |
| 2026-04-29 03:39 | -33.88405 | -56.32629 | 31002 ft | 491 kts | 49° |
| 2026-04-29 03:39 | -33.83922 | -56.26410 | 31003 ft | 491 kts | 49° |
| 2026-04-29 03:40 | -33.79423 | -56.20198 | 31002 ft | 491 kts | 49° |
| 2026-04-29 03:40 | -33.74961 | -56.13980 | 31000 ft | 491 kts | 49° |
| 2026-04-29 03:41 | -33.71263 | -56.08795 | 30996 ft | 491 kts | 49° |
| 2026-04-29 03:41 | -33.66090 | -56.01557 | 31000 ft | 491 kts | 49° |
| 2026-04-29 03:42 | -33.62356 | -55.96348 | 31001 ft | 490 kts | 49° |
| 2026-04-29 03:42 | -33.57926 | -55.90182 | 31000 ft | 490 kts | 49° |
| 2026-04-29 03:43 | -33.53458 | -55.83975 | 31001 ft | 490 kts | 49° |
| 2026-04-29 03:43 | -33.49002 | -55.77794 | 31000 ft | 490 kts | 49° |
| 2026-04-29 03:44 | -33.44568 | -55.71654 | 31000 ft | 490 kts | 49° |
| 2026-04-29 03:44 | -33.40101 | -55.65479 | 31001 ft | 490 kts | 49° |
| 2026-04-29 03:45 | -33.35629 | -55.59307 | 31003 ft | 490 kts | 49° |
| 2026-04-29 03:45 | -33.31155 | -55.53144 | 31003 ft | 490 kts | 49° |
| 2026-04-29 03:46 | -33.26680 | -55.46989 | 31001 ft | 490 kts | 49° |
| 2026-04-29 03:46 | -33.22221 | -55.40868 | 31000 ft | 490 kts | 49° |
| 2026-04-29 03:47 | -33.17740 | -55.34726 | 31001 ft | 491 kts | 49° |
| 2026-04-29 03:47 | -33.13246 | -55.28576 | 30999 ft | 491 kts | 49° |
| 2026-04-29 03:48 | -33.08756 | -55.22442 | 30999 ft | 490 kts | 49° |
| 2026-04-29 03:48 | -33.04265 | -55.16317 | 31001 ft | 490 kts | 49° |
| 2026-04-29 03:49 | -32.99768 | -55.10196 | 31002 ft | 490 kts | 49° |
| 2026-04-29 03:49 | -32.95274 | -55.04087 | 31002 ft | 490 kts | 49° |
| 2026-04-29 03:50 | -32.90798 | -54.98015 | 31002 ft | 490 kts | 49° |
| 2026-04-29 03:50 | -32.86293 | -54.91911 | 31003 ft | 490 kts | 49° |
| 2026-04-29 03:51 | -32.81787 | -54.85818 | 31003 ft | 490 kts | 49° |
| 2026-04-29 03:51 | -32.77277 | -54.79730 | 30998 ft | 490 kts | 49° |
| 2026-04-29 03:52 | -32.72766 | -54.73649 | 31001 ft | 490 kts | 49° |
| 2026-04-29 03:52 | -32.68246 | -54.67568 | 30997 ft | 490 kts | 49° |
| 2026-04-29 03:53 | -32.63732 | -54.61503 | 31003 ft | 490 kts | 49° |
| 2026-04-29 03:53 | -32.59235 | -54.55472 | 31000 ft | 490 kts | 49° |
| 2026-04-29 03:54 | -32.54710 | -54.49412 | 30999 ft | 490 kts | 48° |
| 2026-04-29 03:54 | -32.50178 | -54.43354 | 31002 ft | 490 kts | 48° |
| 2026-04-29 03:55 | -32.45653 | -54.37315 | 31002 ft | 490 kts | 48° |
| 2026-04-29 03:55 | -32.41118 | -54.31271 | 31003 ft | 490 kts | 48° |
| 2026-04-29 03:56 | -32.36609 | -54.25270 | 31001 ft | 490 kts | 48° |
| 2026-04-29 03:56 | -32.32082 | -54.19233 | 31002 ft | 490 kts | 49° |
| 2026-04-29 03:57 | -32.27594 | -54.13151 | 30999 ft | 490 kts | 49° |
| 2026-04-29 03:57 | -32.23105 | -54.07064 | 31001 ft | 490 kts | 49° |
| 2026-04-29 03:58 | -32.18610 | -54.00996 | 31002 ft | 490 kts | 49° |
| 2026-04-29 03:58 | -32.14112 | -53.94936 | 31003 ft | 490 kts | 49° |
| 2026-04-29 03:59 | -32.09631 | -53.88909 | 30998 ft | 490 kts | 49° |
| 2026-04-29 03:59 | -32.04769 | -53.83266 | 31006 ft | 490 kts | 39° |
| 2026-04-29 04:00 | -31.99174 | -53.78691 | 31012 ft | 490 kts | 33° |
| 2026-04-29 04:00 | -31.93448 | -53.74307 | 30996 ft | 490 kts | 33° |
| 2026-04-29 04:01 | -31.87773 | -53.69931 | 31004 ft | 490 kts | 33° |
| 2026-04-29 04:01 | -31.82077 | -53.65509 | 31002 ft | 491 kts | 33° |
| 2026-04-29 04:02 | -31.76371 | -53.61075 | 31002 ft | 491 kts | 33° |
| 2026-04-29 04:02 | -31.70660 | -53.56643 | 30999 ft | 491 kts | 33° |
| 2026-04-29 04:03 | -31.64994 | -53.52254 | 31002 ft | 491 kts | 33° |
| 2026-04-29 04:03 | -31.59289 | -53.47843 | 31003 ft | 490 kts | 33° |
| 2026-04-29 04:04 | -31.53581 | -53.43436 | 31002 ft | 490 kts | 33° |
| 2026-04-29 04:04 | -31.47875 | -53.39037 | 31002 ft | 490 kts | 33° |
| 2026-04-29 04:05 | -31.42169 | -53.34645 | 30998 ft | 490 kts | 33° |
| 2026-04-29 04:05 | -31.36469 | -53.30263 | 30998 ft | 490 kts | 33° |
| 2026-04-29 04:06 | -31.30793 | -53.25907 | 30999 ft | 490 kts | 33° |
| 2026-04-29 04:06 | -31.25080 | -53.21528 | 31002 ft | 490 kts | 33° |
| 2026-04-29 04:07 | -31.19367 | -53.17156 | 31002 ft | 490 kts | 33° |
| 2026-04-29 04:07 | -31.13662 | -53.12797 | 31003 ft | 490 kts | 33° |
| 2026-04-29 04:08 | -31.07945 | -53.08435 | 31001 ft | 490 kts | 33° |
| 2026-04-29 04:08 | -31.02274 | -53.04114 | 31002 ft | 490 kts | 33° |
| 2026-04-29 04:09 | -30.96558 | -52.99765 | 31002 ft | 490 kts | 33° |
| 2026-04-29 04:09 | -30.90840 | -52.95421 | 31003 ft | 490 kts | 33° |
| 2026-04-29 04:10 | -30.85123 | -52.91084 | 31000 ft | 490 kts | 33° |
| 2026-04-29 04:10 | -30.79383 | -52.86736 | 30998 ft | 490 kts | 33° |
| 2026-04-29 04:11 | -30.73666 | -52.82411 | 30998 ft | 490 kts | 33° |
| 2026-04-29 04:11 | -30.67980 | -52.78116 | 31003 ft | 490 kts | 33° |
| 2026-04-29 04:12 | -30.62244 | -52.73790 | 31001 ft | 490 kts | 33° |
| 2026-04-29 04:12 | -30.56515 | -52.69475 | 31000 ft | 490 kts | 33° |
| 2026-04-29 04:13 | -30.50791 | -52.65169 | 31001 ft | 490 kts | 33° |
| 2026-04-29 04:13 | -30.45090 | -52.60887 | 30997 ft | 490 kts | 33° |
| 2026-04-29 04:14 | -30.39362 | -52.56592 | 31002 ft | 490 kts | 33° |
| 2026-04-29 04:14 | -30.33628 | -52.52298 | 31002 ft | 490 kts | 33° |
| 2026-04-29 04:15 | -30.27890 | -52.48006 | 31003 ft | 490 kts | 33° |
| 2026-04-29 04:15 | -30.22190 | -52.43749 | 31002 ft | 490 kts | 33° |
| 2026-04-29 04:16 | -30.16453 | -52.39471 | 31000 ft | 490 kts | 33° |
| 2026-04-29 04:16 | -30.10718 | -52.35200 | 30998 ft | 490 kts | 33° |
| 2026-04-29 04:17 | -30.04980 | -52.30933 | 31001 ft | 490 kts | 33° |
| 2026-04-29 04:17 | -29.99242 | -52.26672 | 31002 ft | 490 kts | 33° |
| 2026-04-29 04:18 | -29.93506 | -52.22418 | 31001 ft | 490 kts | 32° |
| 2026-04-29 04:18 | -29.87801 | -52.18193 | 31002 ft | 490 kts | 32° |
| 2026-04-29 04:19 | -29.82060 | -52.13947 | 31002 ft | 490 kts | 32° |
| 2026-04-29 04:19 | -29.76313 | -52.09703 | 31001 ft | 490 kts | 32° |
| 2026-04-29 04:20 | -29.70549 | -52.05452 | 31002 ft | 490 kts | 32° |
| 2026-04-29 04:20 | -29.64840 | -52.01247 | 31000 ft | 490 kts | 32° |
| 2026-04-29 04:21 | -29.59088 | -51.97017 | 31002 ft | 490 kts | 32° |
| 2026-04-29 04:21 | -29.53338 | -51.92793 | 31000 ft | 490 kts | 32° |
| 2026-04-29 04:22 | -29.47581 | -51.88570 | 31000 ft | 490 kts | 32° |
| 2026-04-29 04:22 | -29.41821 | -51.84351 | 31002 ft | 490 kts | 32° |
| 2026-04-29 04:23 | -29.36097 | -51.80163 | 31003 ft | 490 kts | 32° |
| 2026-04-29 04:23 | -29.30338 | -51.75954 | 31004 ft | 490 kts | 32° |
| 2026-04-29 04:24 | -29.24603 | -51.71724 | 31000 ft | 490 kts | 33° |
| 2026-04-29 04:24 | -29.18915 | -51.67393 | 31005 ft | 490 kts | 33° |
| 2026-04-29 04:25 | -29.13220 | -51.63066 | 30996 ft | 490 kts | 33° |
| 2026-04-29 04:25 | -29.07564 | -51.58797 | 31005 ft | 490 kts | 33° |
| 2026-04-29 04:26 | -29.01843 | -51.54495 | 31002 ft | 490 kts | 33° |
| 2026-04-29 04:26 | -28.96169 | -51.50235 | 31003 ft | 490 kts | 33° |
| 2026-04-29 04:27 | -28.90463 | -51.45956 | 31001 ft | 490 kts | 33° |
| 2026-04-29 04:27 | -28.85718 | -51.42400 | 31001 ft | 490 kts | 33° |
| 2026-04-29 04:28 | -28.80013 | -51.38129 | 31001 ft | 490 kts | 33° |
| 2026-04-29 04:28 | -28.74308 | -51.33864 | 31001 ft | 490 kts | 33° |
| 2026-04-29 04:29 | -28.68591 | -51.29597 | 31002 ft | 490 kts | 33° |
| 2026-04-29 04:29 | -28.62882 | -51.25340 | 31000 ft | 490 kts | 33° |
| 2026-04-29 04:30 | -28.57205 | -51.21114 | 31000 ft | 490 kts | 33° |
| 2026-04-29 04:31 | -28.48640 | -51.14747 | 31000 ft | 490 kts | 33° |
| 2026-04-29 04:31 | -28.42924 | -51.10505 | 31002 ft | 490 kts | 33° |
| 2026-04-29 04:32 | -28.37210 | -51.06269 | 31000 ft | 490 kts | 33° |
| 2026-04-29 04:32 | -28.31494 | -51.02038 | 31000 ft | 490 kts | 33° |
| 2026-04-29 04:33 | -28.25769 | -50.97805 | 31002 ft | 490 kts | 33° |
| 2026-04-29 04:33 | -28.20081 | -50.93606 | 31003 ft | 490 kts | 33° |
| 2026-04-29 04:34 | -28.14362 | -50.89388 | 30999 ft | 490 kts | 33° |
| 2026-04-29 04:34 | -28.08642 | -50.85177 | 31003 ft | 490 kts | 32° |
| 2026-04-29 04:35 | -28.02563 | -50.81672 | 31009 ft | 490 kts | 21° |
| 2026-04-29 04:35 | -27.96057 | -50.79416 | 31012 ft | 489 kts | 15° |
| 2026-04-29 04:36 | -27.89513 | -50.77434 | 30995 ft | 490 kts | 15° |
| 2026-04-29 04:36 | -27.82931 | -50.75405 | 31001 ft | 490 kts | 15° |
| 2026-04-29 04:37 | -27.76338 | -50.73343 | 31001 ft | 490 kts | 15° |
| 2026-04-29 04:37 | -27.69800 | -50.71294 | 31002 ft | 490 kts | 15° |
| 2026-04-29 04:38 | -27.63211 | -50.69235 | 31002 ft | 490 kts | 15° |
| 2026-04-29 04:38 | -27.56627 | -50.67181 | 31002 ft | 490 kts | 15° |
| 2026-04-29 04:39 | -27.50045 | -50.65129 | 31001 ft | 490 kts | 15° |
| 2026-04-29 04:39 | -27.43467 | -50.63082 | 30999 ft | 490 kts | 15° |
| 2026-04-29 04:40 | -27.36931 | -50.61051 | 31002 ft | 490 kts | 15° |
| 2026-04-29 04:40 | -27.30347 | -50.59007 | 31002 ft | 490 kts | 15° |
| 2026-04-29 04:41 | -27.23777 | -50.56969 | 31002 ft | 490 kts | 15° |
| 2026-04-29 04:41 | -27.17205 | -50.54931 | 31000 ft | 490 kts | 15° |
| 2026-04-29 04:42 | -27.10631 | -50.52889 | 31001 ft | 490 kts | 15° |
| 2026-04-29 04:42 | -27.04055 | -50.50852 | 31002 ft | 490 kts | 15° |
| 2026-04-29 04:43 | -26.97471 | -50.48826 | 30999 ft | 490 kts | 15° |
| 2026-04-29 04:43 | -26.90935 | -50.46818 | 31001 ft | 490 kts | 15° |
| 2026-04-29 04:44 | -26.84357 | -50.44797 | 31002 ft | 490 kts | 15° |
| 2026-04-29 04:44 | -26.77769 | -50.42775 | 31001 ft | 490 kts | 15° |
| 2026-04-29 04:45 | -26.71186 | -50.40756 | 31000 ft | 490 kts | 15° |
| 2026-04-29 04:45 | -26.64646 | -50.38754 | 31001 ft | 490 kts | 15° |
| 2026-04-29 04:46 | -26.58070 | -50.36742 | 31002 ft | 490 kts | 15° |
| 2026-04-29 04:46 | -26.51479 | -50.34725 | 31000 ft | 490 kts | 15° |
| 2026-04-29 04:47 | -26.44892 | -50.32706 | 31001 ft | 490 kts | 15° |
| 2026-04-29 04:47 | -26.38316 | -50.30692 | 30998 ft | 490 kts | 15° |
| 2026-04-29 04:48 | -26.31774 | -50.28690 | 31002 ft | 490 kts | 15° |
| 2026-04-29 04:48 | -26.25191 | -50.26680 | 31000 ft | 490 kts | 15° |
| 2026-04-29 04:49 | -26.18605 | -50.24670 | 31002 ft | 490 kts | 15° |
| 2026-04-29 04:49 | -26.12068 | -50.22678 | 31002 ft | 490 kts | 15° |
| 2026-04-29 04:50 | -26.05474 | -50.20671 | 30998 ft | 490 kts | 15° |
| 2026-04-29 04:50 | -25.98893 | -50.18670 | 31002 ft | 490 kts | 15° |
| 2026-04-29 04:51 | -25.92335 | -50.16678 | 31003 ft | 490 kts | 15° |
| 2026-04-29 04:51 | -25.85742 | -50.14677 | 31002 ft | 490 kts | 15° |
| 2026-04-29 04:52 | -25.79164 | -50.12683 | 31001 ft | 490 kts | 15° |
| 2026-04-29 04:52 | -25.72614 | -50.10703 | 30999 ft | 490 kts | 15° |
| 2026-04-29 04:53 | -25.66022 | -50.08713 | 31002 ft | 490 kts | 15° |
| 2026-04-29 04:53 | -25.59432 | -50.06724 | 31002 ft | 490 kts | 15° |
| 2026-04-29 04:54 | -25.52839 | -50.04750 | 31002 ft | 490 kts | 15° |
| 2026-04-29 04:54 | -25.46239 | -50.02809 | 31003 ft | 490 kts | 14° |
| 2026-04-29 04:55 | -25.39667 | -50.00877 | 30996 ft | 491 kts | 14° |
| 2026-04-29 04:55 | -25.33072 | -49.98934 | 31003 ft | 491 kts | 15° |
| 2026-04-29 04:56 | -25.26453 | -49.96984 | 31000 ft | 491 kts | 15° |
| 2026-04-29 04:56 | -25.19883 | -49.95019 | 30999 ft | 491 kts | 15° |
| 2026-04-29 04:57 | -25.13273 | -49.93067 | 31003 ft | 491 kts | 14° |
| 2026-04-29 04:57 | -25.06670 | -49.91133 | 31002 ft | 491 kts | 14° |
| 2026-04-29 04:58 | -25.00082 | -49.89202 | 31003 ft | 491 kts | 14° |
| 2026-04-29 04:58 | -24.93483 | -49.87266 | 30997 ft | 491 kts | 14° |
| 2026-04-29 04:59 | -24.86869 | -49.85328 | 31002 ft | 491 kts | 14° |
| 2026-04-29 04:59 | -24.80306 | -49.83407 | 31001 ft | 491 kts | 14° |
| 2026-04-29 05:00 | -24.73718 | -49.81416 | 31002 ft | 491 kts | 15° |
| 2026-04-29 05:00 | -24.67137 | -49.79363 | 30999 ft | 491 kts | 15° |
| 2026-04-29 05:01 | -24.60544 | -49.77318 | 31002 ft | 491 kts | 15° |
| 2026-04-29 05:01 | -24.53964 | -49.75290 | 31002 ft | 491 kts | 15° |
| 2026-04-29 05:02 | -24.47375 | -49.73262 | 31003 ft | 491 kts | 15° |
| 2026-04-29 05:02 | -24.40809 | -49.71337 | 30997 ft | 491 kts | 13° |
| 2026-04-29 05:03 | -24.34143 | -49.69665 | 31003 ft | 491 kts | 12° |
| 2026-04-29 05:03 | -24.27477 | -49.67997 | 31002 ft | 491 kts | 13° |
| 2026-04-29 05:04 | -24.20822 | -49.66287 | 31003 ft | 491 kts | 13° |
| 2026-04-29 05:04 | -24.14161 | -49.64565 | 30998 ft | 491 kts | 13° |
| 2026-04-29 05:05 | -24.07492 | -49.62847 | 31004 ft | 491 kts | 13° |
| 2026-04-29 05:05 | -24.00892 | -49.61037 | 30996 ft | 492 kts | 14° |
| 2026-04-29 05:06 | -23.95374 | -49.59468 | 31003 ft | 492 kts | 14° |